Time;durP1;ratioP1;P1;durP2;ratioP2;P2;SDS_P1;SDS_P2;PMS_P1;PMS_P2;Temp;Humidity;BMP_temperature;BMP_pressure;BME280_temperature;BME280_humidity;BME280_pressure;Samples;Min_cycle;Max_cycle;Signal;HPM_P1;HPM_P2
2023/07/11 00:00:45;;;;;;;7.40;6.07;;;19.00;99.90;;;;;;10345653;28;20209;-96
2023/07/11 00:06:02;;;;;;;5.53;4.90;;;18.90;99.90;;;;;;10330498;28;20616;-96
2023/07/11 00:11:09;;;;;;;5.95;5.32;;;18.70;99.90;;;;;;10342740;28;20228;-95
2023/07/11 00:16:14;;;;;;;6.40;5.63;;;18.80;99.90;;;;;;10337621;28;20584;-96
2023/07/11 00:21:16;;;;;;;9.40;5.43;;;18.70;99.90;;;;;;10326093;28;20213;-96
2023/07/11 00:26:19;;;;;;;7.00;6.40;;;18.70;99.90;;;;;;10354561;28;20213;-94
2023/07/11 00:31:21;;;;;;;5.85;5.35;;;18.50;99.90;;;;;;10325810;28;20608;-96
2023/07/11 00:36:24;;;;;;;9.15;6.15;;;18.50;99.90;;;;;;10329040;28;20242;-96
2023/07/11 00:41:27;;;;;;;7.70;5.70;;;18.40;99.90;;;;;;10324398;28;20272;-95
2023/07/11 00:46:29;;;;;;;6.43;5.20;;;18.20;99.90;;;;;;10331974;28;20272;-95
2023/07/11 00:51:42;;;;;;;6.35;5.20;;;18.30;99.90;;;;;;10350407;28;20228;-96
2023/07/11 00:56:48;;;;;;;5.15;4.65;;;18.30;99.90;;;;;;10322062;28;20504;-96
2023/07/11 01:02:02;;;;;;;5.63;5.13;;;18.40;99.90;;;;;;10321050;28;20213;-96
2023/07/11 01:07:08;;;;;;;10.32;6.28;;;18.50;99.90;;;;;;10293767;28;20213;-96
2023/07/11 01:12:13;;;;;;;7.72;5.95;;;18.40;99.90;;;;;;10307492;28;20229;-96
2023/07/11 01:17:28;;;;;;;6.47;5.07;;;18.20;99.90;;;;;;10330910;28;20246;-96
2023/07/11 01:22:33;;;;;;;6.35;5.68;;;18.10;99.90;;;;;;10310298;28;20642;-96
2023/07/11 01:27:37;;;;;;;6.60;4.82;;;18.20;99.90;;;;;;10363230;28;20208;-96
2023/07/11 01:32:40;;;;;;;9.88;6.25;;;18.20;99.90;;;;;;10361007;28;20228;-96
2023/07/11 01:37:43;;;;;;;7.00;5.50;;;18.20;99.90;;;;;;10333668;28;20228;-96
2023/07/11 01:42:45;;;;;;;7.55;5.50;;;18.30;99.90;;;;;;10320777;28;20642;-96
2023/07/11 01:47:48;;;;;;;7.05;6.45;;;18.20;99.90;;;;;;10322216;28;20758;-96
2023/07/11 01:52:50;;;;;;;6.35;5.70;;;18.30;99.90;;;;;;10358962;28;20232;-96
2023/07/11 01:57:53;;;;;;;9.65;6.63;;;18.20;99.90;;;;;;10354180;28;20233;-96
2023/07/11 02:02:56;;;;;;;7.90;7.18;;;18.10;99.90;;;;;;10309429;28;20225;-95
2023/07/11 02:08:00;;;;;;;9.80;5.88;;;18.00;99.90;;;;;;10299926;28;20229;-96
2023/07/11 02:13:03;;;;;;;8.13;6.35;;;17.90;99.90;;;;;;10346627;28;20225;-96
2023/07/11 02:18:14;;;;;;;14.73;10.00;;;17.90;99.90;;;;;;10356298;28;20213;-94
2023/07/11 02:23:17;;;;;;;9.85;8.55;;;17.90;99.90;;;;;;10344832;28;20225;-93
2023/07/11 02:28:21;;;;;;;11.13;7.50;;;17.90;99.90;;;;;;10329787;28;20237;-95
2023/07/11 02:33:23;;;;;;;7.07;5.95;;;17.90;99.90;;;;;;10322459;28;20248;-96
2023/07/11 02:43:52;;;;;;;10.38;7.82;;;17.80;99.90;;;;;;10242402;29;20640;-81
2023/07/11 02:48:56;;;;;;;6.95;5.78;;;17.90;99.90;;;;;;10244135;28;20533;-81
2023/07/11 02:53:58;;;;;;;10.60;8.82;;;18.10;99.90;;;;;;10244141;29;20266;-81
2023/07/11 02:59:01;;;;;;;15.00;11.20;;;18.10;99.90;;;;;;10244767;29;20246;-81
2023/07/11 03:04:04;;;;;;;8.27;7.47;;;18.20;99.90;;;;;;10244176;29;20731;-81
2023/07/11 03:09:07;;;;;;;12.93;11.10;;;18.20;99.90;;;;;;10242648;28;20336;-81
2023/07/11 03:14:10;;;;;;;17.83;12.93;;;18.40;99.90;;;;;;10238101;29;20308;-81
2023/07/11 03:19:13;;;;;;;14.40;11.13;;;18.30;99.90;;;;;;10252092;29;20305;-81
2023/07/11 03:24:15;;;;;;;16.33;11.18;;;18.40;99.90;;;;;;10249237;28;20692;-81
2023/07/11 03:29:18;;;;;;;17.08;13.00;;;18.50;99.90;;;;;;10252616;28;20697;-81
2023/07/11 03:34:21;;;;;;;8.75;7.85;;;18.60;99.90;;;;;;10262301;28;20794;-81
2023/07/11 03:39:24;;;;;;;13.48;10.00;;;18.60;99.90;;;;;;10266305;28;20735;-81
2023/07/11 03:44:27;;;;;;;10.23;8.15;;;18.80;99.90;;;;;;10250639;29;20273;-81
2023/07/11 03:49:29;;;;;;;11.73;9.43;;;18.90;99.90;;;;;;10250989;29;20760;-81
2023/07/11 03:54:32;;;;;;;12.45;8.65;;;18.90;99.90;;;;;;10249843;28;20668;-81
2023/07/11 03:59:34;;;;;;;10.85;8.60;;;18.90;99.90;;;;;;10251240;29;20230;-80
2023/07/11 04:04:37;;;;;;;14.68;10.95;;;19.00;99.90;;;;;;10248431;28;20697;-81
2023/07/11 04:09:40;;;;;;;6.57;5.97;;;19.00;99.90;;;;;;10232148;29;20339;-81
2023/07/11 04:14:43;;;;;;;6.97;6.35;;;19.20;99.90;;;;;;10249041;28;20329;-81
2023/07/11 04:19:45;;;;;;;12.13;10.93;;;19.40;99.90;;;;;;10245818;28;20242;-81
2023/07/11 04:24:48;;;;;;;11.70;8.52;;;19.60;99.90;;;;;;10245266;28;20649;-81
2023/07/11 04:29:51;;;;;;;5.63;5.03;;;19.50;99.90;;;;;;10249318;29;20234;-81
2023/07/11 04:34:53;;;;;;;10.73;8.45;;;19.50;99.90;;;;;;10245732;29;20265;-81
2023/07/11 04:39:56;;;;;;;11.30;8.23;;;19.50;99.90;;;;;;10247569;29;20657;-81
2023/07/11 04:44:58;;;;;;;12.25;9.05;;;19.50;99.90;;;;;;10248055;29;20633;-81
2023/07/11 04:50:02;;;;;;;9.73;7.20;;;19.50;99.90;;;;;;10226219;28;20245;-81
2023/07/11 04:55:05;;;;;;;11.13;9.93;;;19.40;99.90;;;;;;10247106;29;20320;-81
2023/07/11 05:00:09;;;;;;;13.45;10.23;;;19.60;99.90;;;;;;10247798;29;20502;-81
2023/07/11 05:05:11;;;;;;;10.18;8.10;;;19.50;99.90;;;;;;10243739;28;21885;-81
2023/07/11 05:10:14;;;;;;;10.88;8.65;;;19.50;99.90;;;;;;10246836;28;20697;-82
2023/07/11 05:15:17;;;;;;;10.43;9.32;;;19.60;99.90;;;;;;10245827;29;20309;-81
2023/07/11 05:20:21;;;;;;;8.60;7.07;;;19.50;99.90;;;;;;10243332;28;20752;-81
2023/07/11 05:25:24;;;;;;;9.95;8.95;;;19.50;99.90;;;;;;10220945;29;20214;-81
2023/07/11 05:30:26;;;;;;;10.25;8.50;;;19.70;99.90;;;;;;10208325;29;20672;-81
2023/07/11 05:35:29;;;;;;;11.93;9.70;;;19.90;99.90;;;;;;10243372;28;20344;-81
2023/07/11 05:40:34;;;;;;;12.32;8.85;;;19.90;99.90;;;;;;10246798;29;20303;-81
2023/07/11 05:45:43;;;;;;;10.50;8.10;;;19.90;99.90;;;;;;10246433;28;20304;-81
2023/07/11 05:51:05;;;;;;;8.35;7.45;;;20.10;99.90;;;;;;10246729;29;20296;-82
2023/07/11 05:56:07;;;;;;;10.77;8.43;;;20.20;99.90;;;;;;10221536;28;20843;-81
2023/07/11 06:01:16;;;;;;;8.40;7.60;;;20.40;99.90;;;;;;10243495;28;20696;-83
2023/07/11 06:06:19;;;;;;;7.13;6.30;;;20.40;99.90;;;;;;10246610;29;20250;-83
2023/07/11 06:11:22;;;;;;;7.88;7.07;;;20.60;99.90;;;;;;10245556;28;20320;-83
2023/07/11 06:16:24;;;;;;;13.07;7.72;;;20.70;99.90;;;;;;10246390;29;20249;-83
2023/07/11 06:21:27;;;;;;;6.28;5.68;;;20.80;99.90;;;;;;10246446;29;20304;-83
2023/07/11 06:26:30;;;;;;;7.03;6.32;;;21.00;99.90;;;;;;10245302;29;20620;-83
2023/07/11 06:31:32;;;;;;;6.72;6.13;;;21.20;99.90;;;;;;10244057;29;20701;-83
2023/07/11 06:36:35;;;;;;;7.60;5.57;;;21.30;99.80;;;;;;10246060;29;20363;-83
2023/07/11 06:41:38;;;;;;;5.30;4.80;;;21.40;99.10;;;;;;10244075;29;20265;-83
2023/07/11 06:46:41;;;;;;;6.68;5.10;;;21.70;97.90;;;;;;10244619;28;20282;-83
2023/07/11 06:51:43;;;;;;;5.60;5.10;;;21.90;97.00;;;;;;10253578;29;20257;-83
2023/07/11 06:56:46;;;;;;;10.63;6.13;;;22.20;95.50;;;;;;10253582;29;20405;-83
2023/07/11 07:01:49;;;;;;;7.68;4.88;;;22.20;95.70;;;;;;10253367;29;20317;-84
2023/07/11 07:06:52;;;;;;;5.75;4.68;;;22.20;95.50;;;;;;10253243;29;20242;-83
2023/07/11 07:11:54;;;;;;;7.80;5.28;;;22.60;94.20;;;;;;10252994;29;20269;-84
2023/07/11 07:16:57;;;;;;;5.88;5.10;;;22.80;92.70;;;;;;10252538;29;20250;-84
2023/07/11 07:22:00;;;;;;;6.88;5.22;;;22.80;93.20;;;;;;10235431;29;20250;-84
2023/07/11 07:27:03;;;;;;;6.60;4.82;;;22.70;92.10;;;;;;10251162;29;20253;-84
2023/07/11 07:32:17;;;;;;;5.18;4.38;;;23.00;92.30;;;;;;10252177;29;20266;-83
2023/07/11 07:37:20;;;;;;;6.22;4.85;;;23.20;91.60;;;;;;10252290;29;20238;-83
2023/07/11 07:42:22;;;;;;;6.82;4.50;;;23.40;91.00;;;;;;10251724;28;20330;-83
2023/07/11 07:47:25;;;;;;;10.70;5.55;;;23.30;89.00;;;;;;10233838;29;20206;-84
2023/07/11 07:52:28;;;;;;;5.07;4.22;;;23.10;89.60;;;;;;10250019;29;20265;-83
2023/07/11 07:57:30;;;;;;;5.93;4.82;;;23.10;88.50;;;;;;10249510;28;20759;-83
2023/07/11 08:02:35;;;;;;;7.68;3.78;;;23.40;88.80;;;;;;10234054;29;20238;-83
2023/07/11 08:07:38;;;;;;;6.00;4.20;;;23.70;84.50;;;;;;10233734;29;20748;-83
2023/07/11 08:12:44;;;;;;;3.72;3.40;;;23.80;83.80;;;;;;10233043;29;20286;-83
2023/07/11 08:17:46;;;;;;;5.18;4.15;;;23.80;79.80;;;;;;10249399;28;20323;-83
2023/07/11 08:22:50;;;;;;;4.18;3.72;;;23.90;79.40;;;;;;10249329;29;20246;-83
2023/07/11 08:27:52;;;;;;;4.50;4.07;;;24.10;77.70;;;;;;10248304;29;20246;-84
2023/07/11 08:32:55;;;;;;;4.15;3.75;;;24.30;76.60;;;;;;10248549;29;20744;-83
2023/07/11 08:37:57;;;;;;;3.58;3.28;;;24.30;74.80;;;;;;10248316;29;20336;-83
2023/07/11 08:43:05;;;;;;;4.22;3.83;;;24.20;71.20;;;;;;10247596;29;20329;-83
2023/07/11 08:48:16;;;;;;;4.10;3.70;;;24.40;68.00;;;;;;10249524;29;20246;-83
2023/07/11 08:53:26;;;;;;;4.90;3.72;;;24.50;69.40;;;;;;10249426;29;20657;-83
2023/07/11 08:58:35;;;;;;;4.07;3.67;;;24.70;65.50;;;;;;10249343;29;20320;-83
2023/07/11 09:03:48;;;;;;;4.50;4.05;;;24.90;66.60;;;;;;10249168;29;20238;-83
2023/07/11 09:08:54;;;;;;;4.40;3.60;;;25.00;63.00;;;;;;10246965;29;20270;-83
2023/07/11 09:14:11;;;;;;;8.25;4.20;;;24.80;61.00;;;;;;10246433;28;20327;-83
2023/07/11 09:19:52;;;;;;;6.80;4.03;;;24.90;60.90;;;;;;10247855;29;20296;-83
2023/07/11 09:25:23;;;;;;;4.90;4.22;;;24.70;61.20;;;;;;10248362;29;20266;-83
2023/07/11 09:31:11;;;;;;;5.72;3.35;;;24.60;60.40;;;;;;10248014;29;20695;-83
2023/07/11 09:36:38;;;;;;;3.88;3.22;;;24.80;60.50;;;;;;10242180;29;20739;-83
2023/07/11 09:42:01;;;;;;;4.38;3.70;;;24.90;59.80;;;;;;10242193;29;20664;-83
2023/07/11 09:47:17;;;;;;;3.60;3.20;;;24.70;56.90;;;;;;10242218;29;20669;-85
2023/07/11 09:52:26;;;;;;;3.78;3.47;;;24.80;59.50;;;;;;10242360;29;20261;-84
2023/07/11 09:57:29;;;;;;;3.95;3.10;;;25.10;58.00;;;;;;10241881;29;20715;-84
2023/07/11 10:02:31;;;;;;;3.53;3.22;;;25.10;54.10;;;;;;10241670;29;20270;-84
2023/07/11 10:07:34;;;;;;;5.15;2.97;;;25.20;56.80;;;;;;10242676;28;20241;-84
2023/07/11 10:12:37;;;;;;;4.63;3.53;;;25.20;50.90;;;;;;10245258;29;20294;-84
2023/07/11 10:17:43;;;;;;;4.60;2.88;;;25.20;52.80;;;;;;10246281;29;20715;-84
2023/07/11 10:22:51;;;;;;;4.47;3.90;;;25.40;49.80;;;;;;10246075;28;20617;-84
2023/07/11 10:28:14;;;;;;;6.47;4.55;;;25.50;51.20;;;;;;10245683;29;20690;-84
2023/07/11 10:33:22;;;;;;;3.58;3.10;;;25.40;51.70;;;;;;10246085;29;20262;-84
2023/07/11 10:39:17;;;;;;;3.60;3.30;;;25.40;51.20;;;;;;10227685;28;20289;-83
2023/07/11 10:44:25;;;;;;;3.47;2.95;;;25.40;50.90;;;;;;10202081;29;20297;-84
2023/07/11 10:49:45;;;;;;;4.80;3.40;;;25.60;44.30;;;;;;10228509;29;20301;-84
2023/07/11 10:55:09;;;;;;;6.80;3.20;;;25.70;48.90;;;;;;10245859;28;20718;-83
2023/07/11 11:00:22;;;;;;;4.35;1.65;;;25.60;47.40;;;;;;10228897;29;20630;-84
2023/07/11 11:05:38;;;;;;;6.15;2.50;;;25.40;33.20;;;;;;10245525;29;20289;-84
2023/07/11 11:10:52;;;;;;;5.50;2.08;;;25.30;38.50;;;;;;10245586;29;20629;-84
2023/07/11 11:16:00;;;;;;;2.88;2.25;;;25.30;33.10;;;;;;10245284;29;20258;-84
2023/07/11 11:21:16;;;;;;;3.78;2.55;;;25.30;37.60;;;;;;10243195;29;20265;-83
2023/07/11 11:26:36;;;;;;;3.53;2.70;;;25.20;35.80;;;;;;10228063;29;20297;-83
2023/07/11 11:32:00;;;;;;;2.47;2.10;;;25.30;34.70;;;;;;10244356;29;20635;-83
2023/07/11 11:37:21;;;;;;;2.83;1.85;;;25.50;36.50;;;;;;10250654;28;20336;-83
2023/07/11 11:42:30;;;;;;;2.88;2.08;;;25.40;27.50;;;;;;10249724;29;20257;-83
2023/07/11 11:47:36;;;;;;;3.17;2.80;;;25.30;28.60;;;;;;10251581;29;20242;-84
2023/07/11 11:53:17;;;;;;;3.15;2.53;;;25.20;34.20;;;;;;10251261;29;20258;-83
2023/07/11 11:58:21;;;;;;;5.20;2.33;;;25.20;32.50;;;;;;10250429;29;20296;-83
2023/07/11 12:03:44;;;;;;;2.03;1.70;;;25.10;34.80;;;;;;10234056;29;20644;-83
2023/07/11 12:09:16;;;;;;;3.75;2.03;;;25.30;29.00;;;;;;10233881;29;20238;-83
2023/07/11 12:14:25;;;;;;;5.15;1.73;;;25.30;24.90;;;;;;10249468;29;20689;-83
2023/07/11 12:19:31;;;;;;;2.53;2.13;;;25.40;26.00;;;;;;10250254;29;20298;-83
2023/07/11 12:24:36;;;;;;;2.55;1.83;;;25.50;29.80;;;;;;10249910;29;20668;-83
2023/07/11 12:29:49;;;;;;;2.92;2.25;;;25.60;25.90;;;;;;10249100;29;20786;-83
2023/07/11 12:34:56;;;;;;;3.67;1.65;;;25.80;31.20;;;;;;10248266;28;20261;-83
2023/07/11 12:40:11;;;;;;;2.75;1.65;;;25.90;28.30;;;;;;10249428;29;20317;-83
2023/07/11 12:45:22;;;;;;;2.60;2.20;;;25.80;22.00;;;;;;10246197;28;20237;-83
2023/07/11 12:50:40;;;;;;;2.90;2.15;;;25.90;25.90;;;;;;10249102;29;20372;-84
2023/07/11 12:55:46;;;;;;;2.70;2.50;;;26.00;30.90;;;;;;10248543;29;20322;-83
2023/07/11 13:00:51;;;;;;;2.58;2.22;;;26.00;33.00;;;;;;10247310;28;20297;-83
2023/07/11 13:05:56;;;;;;;2.35;1.83;;;26.00;31.60;;;;;;10248650;29;20340;-84
2023/07/11 13:11:27;;;;;;;2.10;1.42;;;26.00;23.70;;;;;;10245608;29;20676;-83
2023/07/11 13:16:40;;;;;;;1.90;1.73;;;26.00;23.00;;;;;;10247123;29;20301;-83
2023/07/11 13:21:45;;;;;;;2.40;2.20;;;26.20;26.30;;;;;;10230622;29;20763;-83
2023/07/11 13:26:50;;;;;;;2.97;2.42;;;26.20;28.40;;;;;;10279236;28;20253;-83
2023/07/11 13:32:05;;;;;;;2.22;1.50;;;26.30;24.90;;;;;;10286777;28;20241;-83
2023/07/11 13:37:08;;;;;;;4.00;1.77;;;26.30;22.50;;;;;;10286430;28;20268;-83
2023/07/11 13:42:12;;;;;;;2.83;1.30;;;26.20;24.10;;;;;;10287034;28;20265;-83
2023/07/11 13:47:40;;;;;;;1.73;1.63;;;26.10;17.80;;;;;;10285825;28;20309;-83
2023/07/11 13:52:52;;;;;;;2.00;1.70;;;26.20;17.70;;;;;;10286944;28;20241;-83
2023/07/11 13:57:55;;;;;;;1.60;1.45;;;26.30;21.00;;;;;;10286031;28;20556;-83
2023/07/11 14:02:59;;;;;;;3.75;2.20;;;26.40;16.50;;;;;;10284552;28;20628;-83
2023/07/11 14:08:02;;;;;;;4.38;2.00;;;26.40;22.30;;;;;;10285236;28;20284;-83
2023/07/11 14:13:13;;;;;;;2.17;1.70;;;26.40;20.90;;;;;;10286003;28;20244;-82
2023/07/11 14:18:16;;;;;;;2.60;2.40;;;26.40;23.60;;;;;;10285940;28;20288;-83
2023/07/11 14:23:23;;;;;;;5.47;2.15;;;26.50;27.50;;;;;;10268815;28;20248;-83
2023/07/11 14:28:27;;;;;;;2.50;2.15;;;26.50;24.50;;;;;;10257493;28;20274;-83
2023/07/11 14:33:34;;;;;;;2.60;2.40;;;26.50;25.20;;;;;;10253046;28;20409;-84
2023/07/11 14:38:37;;;;;;;3.80;2.28;;;26.40;23.90;;;;;;10205661;29;20607;-83
2023/07/11 14:43:39;;;;;;;2.72;2.53;;;26.50;24.80;;;;;;10247041;28;20647;-83
2023/07/11 14:48:42;;;;;;;3.40;2.47;;;26.40;28.30;;;;;;10274912;28;20249;-83
2023/07/11 14:53:44;;;;;;;3.72;2.38;;;26.40;21.10;;;;;;10244533;28;20324;-82
2023/07/11 14:58:56;;;;;;;2.38;2.03;;;26.40;20.90;;;;;;10218479;28;20246;-82
2023/07/11 15:03:59;;;;;;;4.30;2.00;;;26.50;23.90;;;;;;10208674;29;20250;-82
2023/07/11 15:09:04;;;;;;;2.78;2.33;;;26.40;23.80;;;;;;10208347;29;20243;-81
2023/07/11 15:14:17;;;;;;;2.17;1.98;;;26.50;23.30;;;;;;10223092;29;20537;-82
2023/07/11 15:19:25;;;;;;;2.08;1.88;;;26.60;17.00;;;;;;10198957;28;20243;-81
2023/07/11 15:24:33;;;;;;;5.03;2.00;;;26.70;24.70;;;;;;10251466;28;20289;-81
2023/07/11 15:29:36;;;;;;;4.53;1.80;;;26.80;25.40;;;;;;10251732;29;20253;-82
2023/07/11 15:34:38;;;;;;;2.25;1.77;;;26.90;24.60;;;;;;10232039;29;20265;-80
2023/07/11 15:39:42;;;;;;;3.15;1.80;;;26.90;26.70;;;;;;10248822;28;20321;-85
2023/07/11 15:44:53;;;;;;;3.63;1.30;;;27.00;21.60;;;;;;10221016;29;20682;-84
2023/07/11 15:49:56;;;;;;;3.58;1.33;;;27.00;16.90;;;;;;10209664;29;20303;-83
2023/07/11 15:55:04;;;;;;;2.80;1.92;;;27.00;16.20;;;;;;10228712;29;20258;-81
2023/07/11 16:00:33;;;;;;;1.73;1.33;;;27.00;15.50;;;;;;10242880;28;20301;-82
2023/07/11 16:05:37;;;;;;;2.65;1.60;;;26.90;20.40;;;;;;10219046;28;20300;-83
2023/07/11 16:10:40;;;;;;;2.88;2.08;;;26.90;16.00;;;;;;10230991;29;20242;-82
2023/07/11 16:15:43;;;;;;;2.17;1.85;;;26.90;19.40;;;;;;10244914;29;20266;-81
2023/07/11 16:20:47;;;;;;;1.70;1.30;;;27.00;21.70;;;;;;10232272;28;20313;-83
2023/07/11 16:25:50;;;;;;;2.20;1.13;;;27.10;15.70;;;;;;9559163;28;10000728;-82
2023/07/11 16:30:58;;;;;;;3.50;1.55;;;27.10;15.60;;;;;;10226584;29;20701;-81
2023/07/11 16:36:00;;;;;;;2.63;1.40;;;27.30;17.80;;;;;;10244097;28;20262;-82
2023/07/11 16:41:03;;;;;;;1.30;1.20;;;27.40;19.60;;;;;;10161441;29;1172343;-81
2023/07/11 16:46:09;;;;;;;2.10;1.90;;;27.40;9.80;;;;;;10217710;29;20657;-81
2023/07/11 16:51:21;;;;;;;1.70;1.50;;;27.60;21.50;;;;;;10218193;29;20302;-82
2023/07/11 16:56:24;;;;;;;1.50;1.33;;;27.50;17.40;;;;;;10207417;29;20250;-82
2023/07/11 17:01:26;;;;;;;1.65;1.27;;;27.30;19.90;;;;;;10224060;28;20243;-83
2023/07/11 17:06:30;;;;;;;4.85;1.42;;;27.30;16.90;;;;;;10184108;29;20240;-82
2023/07/11 17:11:33;;;;;;;1.92;1.33;;;27.20;17.40;;;;;;10197506;29;20627;-80
2023/07/11 17:16:56;;;;;;;1.42;1.27;;;27.20;17.50;;;;;;10202599;29;20330;-82
2023/07/11 17:22:01;;;;;;;1.35;1.23;;;27.20;22.40;;;;;;10196677;29;20782;-81
2023/07/11 17:27:21;;;;;;;0.98;0.85;;;27.10;21.70;;;;;;10203435;29;20774;-82
2023/07/11 17:32:25;;;;;;;2.90;1.08;;;27.00;19.30;;;;;;10197615;29;20663;-82
2023/07/11 17:37:34;;;;;;;2.70;1.58;;;26.80;17.80;;;;;;10190704;29;20271;-81
2023/07/11 17:42:37;;;;;;;3.17;1.33;;;26.70;19.00;;;;;;10210687;28;20274;-81
2023/07/11 17:47:40;;;;;;;3.08;1.38;;;26.40;15.90;;;;;;10237098;28;20253;-82
2023/07/11 17:53:02;;;;;;;3.60;1.20;;;26.10;17.10;;;;;;10241870;29;20242;-83
2023/07/11 17:58:26;;;;;;;1.67;1.10;;;25.80;19.70;;;;;;10242841;28;20673;-82
2023/07/11 18:03:29;;;;;;;3.22;1.00;;;25.40;18.20;;;;;;10247075;28;20246;-82
2023/07/11 18:08:32;;;;;;;1.50;1.20;;;25.10;17.10;;;;;;10244237;29;20697;-81
2023/07/11 18:13:34;;;;;;;2.67;1.35;;;24.70;17.80;;;;;;10246702;28;20676;-82
2023/07/11 18:18:37;;;;;;;2.35;1.30;;;24.40;21.00;;;;;;10246452;28;20274;-82
2023/07/11 18:23:40;;;;;;;6.68;1.77;;;24.30;23.20;;;;;;10246455;28;20824;-82
2023/07/11 18:28:43;;;;;;;9.27;1.50;;;24.00;24.00;;;;;;10246701;28;20262;-82
2023/07/11 18:33:47;;;;;;;5.70;1.83;;;23.60;26.00;;;;;;10246155;28;20245;-83
2023/07/11 18:38:51;;;;;;;6.28;2.03;;;23.30;28.00;;;;;;10244668;29;20269;-83
2023/07/11 18:43:54;;;;;;;6.60;1.98;;;23.10;30.30;;;;;;10280795;28;20320;-81
2023/07/11 18:48:57;;;;;;;7.13;2.05;;;22.90;30.20;;;;;;10264944;28;20256;-82
2023/07/11 18:53:59;;;;;;;3.88;1.42;;;22.80;34.00;;;;;;10260129;28;20242;-83
2023/07/11 18:59:02;;;;;;;11.52;2.53;;;22.70;34.40;;;;;;10238775;28;20308;-82
2023/07/11 19:04:05;;;;;;;3.58;2.00;;;22.40;37.60;;;;;;10252822;29;20242;-85
2023/07/11 19:09:10;;;;;;;4.20;2.05;;;22.00;38.90;;;;;;10242528;28;20654;-84
2023/07/11 19:14:13;;;;;;;9.55;1.63;;;21.80;42.00;;;;;;10242845;28;20241;-84
2023/07/11 19:19:27;;;;;;;19.02;2.55;;;21.50;44.60;;;;;;10247751;28;20246;-83
2023/07/11 19:24:30;;;;;;;5.13;1.70;;;21.30;46.30;;;;;;10248182;28;20219;-83
2023/07/11 19:29:40;;;;;;;3.85;1.48;;;21.30;47.00;;;;;;10233103;28;20265;-82
2023/07/11 19:34:43;;;;;;;6.10;1.50;;;21.30;49.50;;;;;;10225778;28;20329;-82
2023/07/11 19:39:51;;;;;;;7.60;2.20;;;21.20;51.90;;;;;;10248772;28;20286;-82
2023/07/11 19:44:53;;;;;;;4.85;2.00;;;21.00;53.50;;;;;;10194243;29;20255;-83
2023/07/11 19:49:56;;;;;;;14.68;2.70;;;20.70;56.20;;;;;;9866241;29;9999749;-82
2023/07/11 19:54:59;;;;;;;5.93;2.17;;;20.50;59.60;;;;;;10212232;28;20262;-82
2023/07/11 20:00:01;;;;;;;22.52;3.83;;;20.50;62.40;;;;;;10203186;29;20306;-82
2023/07/11 20:05:04;;;;;;;15.77;3.75;;;20.50;65.50;;;;;;10198518;29;20301;-83
2023/07/11 20:10:18;;;;;;;14.75;3.17;;;20.30;66.90;;;;;;10207540;29;20251;-82
2023/07/11 20:15:21;;;;;;;7.97;2.08;;;20.30;71.50;;;;;;10193742;29;20287;-82
2023/07/11 20:20:31;;;;;;;6.60;2.30;;;20.50;74.10;;;;;;10198987;29;20318;-83
2023/07/11 20:25:33;;;;;;;9.50;2.97;;;20.40;74.10;;;;;;10206941;29;20274;-83
2023/07/11 20:30:37;;;;;;;4.85;2.55;;;20.30;75.50;;;;;;10207969;29;20235;-82
2023/07/11 20:35:41;;;;;;;5.65;2.90;;;20.10;76.60;;;;;;10207442;29;20255;-84
2023/07/11 20:40:45;;;;;;;5.88;2.45;;;19.90;76.50;;;;;;10218985;29;20257;-84
2023/07/11 20:45:49;;;;;;;6.20;2.88;;;19.90;79.00;;;;;;10246106;29;20302;-82
2023/07/11 20:50:52;;;;;;;8.65;3.05;;;19.60;81.00;;;;;;10243395;28;20242;-83
2023/07/11 20:55:55;;;;;;;1.70;1.20;;;19.40;83.50;;;;;;10217163;29;20265;-84
2023/07/11 21:00:59;;;;;;;4.88;1.88;;;19.50;86.90;;;;;;10248947;28;20303;-83
2023/07/11 21:06:01;;;;;;;6.75;2.05;;;19.40;86.90;;;;;;10229917;28;20300;-83
2023/07/11 21:11:04;;;;;;;6.65;3.10;;;19.50;88.10;;;;;;10232686;28;20376;-83
2023/07/11 21:16:10;;;;;;;2.25;2.05;;;19.30;88.90;;;;;;10246416;28;20331;-83
2023/07/11 21:21:13;;;;;;;7.90;2.42;;;19.30;90.40;;;;;;10287841;28;20249;-83
2023/07/11 21:26:18;;;;;;;8.30;2.47;;;19.20;90.80;;;;;;10282208;28;20294;-83
2023/07/11 21:31:23;;;;;;;1.90;1.63;;;19.20;91.10;;;;;;10286843;28;20672;-85
2023/07/11 21:36:26;;;;;;;2.95;2.60;;;19.10;91.50;;;;;;10306486;28;20257;-85
2023/07/11 21:41:29;;;;;;;2.35;2.08;;;18.90;92.40;;;;;;10250035;28;20674;-84
2023/07/11 21:46:34;;;;;;;3.08;2.20;;;18.90;92.80;;;;;;10245786;28;20242;-84
2023/07/11 21:51:37;;;;;;;4.50;2.63;;;18.80;93.20;;;;;;10247110;29;20692;-84
2023/07/11 21:56:39;;;;;;;5.13;2.65;;;18.70;93.00;;;;;;10247942;29;20262;-84
2023/07/11 22:01:42;;;;;;;1.85;1.63;;;18.60;93.60;;;;;;10241409;28;20734;-84
2023/07/11 22:06:45;;;;;;;3.05;2.13;;;18.60;93.60;;;;;;10245538;28;20246;-84
2023/07/11 22:11:47;;;;;;;3.55;2.33;;;18.70;93.60;;;;;;10214831;28;20250;-82
2023/07/11 22:16:50;;;;;;;6.00;2.55;;;18.60;93.70;;;;;;10242030;28;20345;-82
2023/07/11 22:22:08;;;;;;;3.35;2.13;;;18.40;94.20;;;;;;10229016;29;20293;-82
2023/07/11 22:27:11;;;;;;;3.20;2.50;;;18.40;94.30;;;;;;10227955;28;20302;-82
2023/07/11 22:32:13;;;;;;;3.17;2.22;;;18.40;94.50;;;;;;10229051;29;20300;-82
2023/07/11 22:37:16;;;;;;;3.45;2.80;;;18.40;94.50;;;;;;10229271;29;20273;-82
2023/07/11 22:42:19;;;;;;;2.60;1.90;;;18.20;94.30;;;;;;10261277;28;20316;-82
2023/07/11 22:47:21;;;;;;;1.80;1.55;;;18.30;94.50;;;;;;10281200;28;20253;-82
2023/07/11 22:52:24;;;;;;;2.60;2.08;;;18.60;94.60;;;;;;10286312;28;20229;-82
2023/07/11 22:57:26;;;;;;;2.80;2.40;;;18.60;93.30;;;;;;10284366;28;20719;-82
2023/07/11 23:02:28;;;;;;;5.00;2.72;;;18.70;93.10;;;;;;10311807;28;20654;-82
2023/07/11 23:07:31;;;;;;;2.22;1.90;;;18.10;93.00;;;;;;10257067;28;20304;-82
2023/07/11 23:12:34;;;;;;;3.50;2.67;;;18.00;94.10;;;;;;10285731;28;20237;-82
2023/07/11 23:17:36;;;;;;;9.27;2.45;;;17.70;94.10;;;;;;10283188;28;20268;-82
2023/07/11 23:22:39;;;;;;;7.80;2.85;;;17.60;95.10;;;;;;10268272;28;20288;-82
2023/07/11 23:27:45;;;;;;;4.50;2.70;;;17.50;95.80;;;;;;10275455;28;20295;-82
2023/07/11 23:32:52;;;;;;;6.97;2.70;;;17.40;97.10;;;;;;10251661;28;20657;-82
2023/07/11 23:37:56;;;;;;;6.38;3.35;;;17.50;97.00;;;;;;10258698;28;20292;-82
2023/07/11 23:43:00;;;;;;;4.05;2.50;;;17.30;96.80;;;;;;10291083;28;20260;-82
2023/07/11 23:48:09;;;;;;;3.40;2.75;;;17.30;97.20;;;;;;10291028;28;20304;-82
2023/07/11 23:53:12;;;;;;;5.90;3.28;;;17.10;97.90;;;;;;10290663;28;20680;-82
2023/07/11 23:58:24;;;;;;;7.53;3.42;;;17.10;97.00;;;;;;10291751;28;20265;-82
